createdAt,value
2018-06-01T00:01:56.145Z,17.63
2018-06-01T00:04:23.719Z,17.93
2018-06-01T00:06:52.034Z,18.67
2018-06-01T00:09:19.537Z,17.50
2018-06-01T00:11:47.075Z,18.33
2018-06-01T00:14:14.625Z,18.20
2018-06-01T00:16:42.114Z,18.20
2018-06-01T00:19:09.609Z,18.70
2018-06-01T00:21:37.196Z,18.70
2018-06-01T00:24:04.694Z,19.27
2018-06-01T00:26:32.183Z,19.67
2018-06-01T00:28:59.690Z,19.67
2018-06-01T00:31:27.187Z,18.57
2018-06-01T00:33:55.443Z,21.63
2018-06-01T00:36:23.753Z,20.10
2018-06-01T00:38:51.256Z,19.07
2018-06-01T00:41:18.816Z,20.17
2018-06-01T00:43:46.372Z,20.47
2018-06-01T00:46:13.866Z,20.27
2018-06-01T00:48:41.361Z,19.73
2018-06-01T00:51:08.867Z,20.43
2018-06-01T00:53:36.361Z,19.40
2018-06-01T00:56:04.624Z,19.23
2018-06-01T00:58:32.914Z,20.77
2018-06-01T01:01:01.176Z,20.23
2018-06-01T01:03:29.461Z,21.00
2018-06-01T01:05:56.981Z,20.40
2018-06-01T01:08:24.481Z,20.10
2018-06-01T01:10:52.753Z,20.07
2018-06-01T01:13:21.046Z,20.47
2018-06-01T01:15:48.573Z,20.60
2018-06-01T01:18:16.074Z,20.97
2018-06-01T01:20:43.586Z,20.70
2018-06-01T01:23:11.072Z,20.70
2018-06-01T01:25:38.564Z,20.80
2018-06-01T01:28:06.091Z,19.80
2018-06-01T01:30:34.338Z,20.17
2018-06-01T01:33:01.821Z,20.30
2018-06-01T01:35:30.160Z,20.30
2018-06-01T01:37:57.691Z,20.53
2018-06-01T01:40:25.189Z,20.97
2018-06-01T01:42:52.751Z,19.83
2018-06-01T01:45:20.240Z,20.30
2018-06-01T01:47:47.773Z,20.67
2018-06-01T01:50:15.303Z,20.17
2018-06-01T01:52:42.792Z,20.03
2018-06-01T01:55:11.054Z,21.00
2018-06-01T01:57:39.051Z,20.77
2018-06-01T02:00:07.317Z,21.13
2018-06-01T02:02:34.817Z,21.50
2018-06-01T02:05:02.361Z,20.33
2018-06-01T02:07:29.914Z,20.47
2018-06-01T02:09:57.401Z,20.43
2018-06-01T02:12:24.921Z,20.57
2018-06-01T02:14:53.181Z,20.77
2018-06-01T02:17:20.682Z,21.83
2018-06-01T02:19:48.221Z,21.57
2018-06-01T02:22:16.484Z,21.13
2018-06-01T02:24:43.973Z,21.67
2018-06-01T02:27:11.540Z,20.57
2018-06-01T02:29:39.779Z,21.63
2018-06-01T02:32:08.066Z,20.90
2018-06-01T02:34:36.360Z,21.00
2018-06-01T02:37:03.889Z,20.53
2018-06-01T02:39:31.375Z,21.50
2018-06-01T02:41:58.927Z,21.47
2018-06-01T02:44:26.453Z,21.50
2018-06-01T02:46:53.965Z,21.37
2018-06-01T02:49:21.480Z,21.43
2018-06-01T02:51:48.981Z,22.00
2018-06-01T02:54:16.473Z,21.87
2018-06-01T02:56:43.980Z,21.77
2018-06-01T02:59:11.477Z,22.20
2018-06-01T03:01:38.966Z,22.30
2018-06-01T03:04:06.474Z,22.30
2018-06-01T03:09:38.457Z,21.60
2018-06-01T03:12:05.953Z,21.53
2018-06-01T03:14:33.458Z,22.43
2018-06-01T03:17:01.009Z,21.93
2018-06-01T03:19:29.253Z,21.90
2018-06-01T03:21:56.745Z,21.73
2018-06-01T03:24:24.288Z,22.63
2018-06-01T03:26:51.780Z,22.57
2018-06-01T03:29:19.265Z,22.97
2018-06-01T03:31:46.787Z,22.10
2018-06-01T03:34:14.303Z,23.07
2018-06-01T03:36:41.805Z,21.80
2018-06-01T03:39:09.317Z,22.27
2018-06-01T03:41:36.806Z,22.70
2018-06-01T03:44:05.081Z,22.73
2018-06-01T03:46:33.360Z,23.03
2018-06-01T03:49:00.886Z,21.87
2018-06-01T03:51:28.418Z,21.13
2018-06-01T03:53:55.937Z,21.70
2018-06-01T03:56:24.206Z,21.13
2018-06-01T03:58:52.504Z,21.93
2018-06-01T04:01:20.020Z,22.90
2018-06-01T04:03:47.519Z,22.97
2018-06-01T04:06:15.065Z,23.27
2018-06-01T04:08:43.342Z,22.73
2018-06-01T04:11:11.610Z,22.47
2018-06-01T04:13:39.181Z,21.80
2018-06-01T04:16:07.458Z,23.10
2018-06-01T04:18:35.740Z,23.63
2018-06-01T04:21:03.992Z,22.63
2018-06-01T04:23:32.286Z,23.53
2018-06-01T04:26:00.599Z,22.97
2018-06-01T04:28:28.120Z,23.43
2018-06-01T04:30:55.678Z,22.70
2018-06-01T04:33:23.989Z,23.43
2018-06-01T04:35:51.543Z,23.53
2018-06-01T04:38:19.092Z,23.27
2018-06-01T04:40:47.351Z,24.13
2018-06-01T04:43:15.609Z,22.87
2018-06-01T04:45:43.111Z,22.67
2018-06-01T04:48:10.632Z,23.37
2018-06-01T04:50:38.141Z,22.53
2018-06-01T04:53:05.653Z,23.10
2018-06-01T04:55:33.144Z,32.87
2018-06-01T04:58:00.640Z,23.90
2018-06-01T05:00:28.136Z,25.07
2018-06-01T05:02:55.676Z,23.03
2018-06-01T05:05:23.180Z,22.23
2018-06-01T05:07:50.665Z,23.03
2018-06-01T05:10:18.146Z,22.07
2018-06-01T05:12:45.647Z,22.73
2018-06-01T05:15:13.919Z,21.63
2018-06-01T05:17:42.160Z,22.03
2018-06-01T05:20:09.650Z,22.63
2018-06-01T05:22:37.895Z,22.33
2018-06-01T05:25:05.373Z,22.43
2018-06-01T05:27:32.853Z,21.77
2018-06-01T05:30:01.090Z,21.90
2018-06-01T05:32:28.582Z,22.47
2018-06-01T05:34:58.049Z,21.37
2018-06-01T05:37:25.637Z,20.70
2018-06-01T05:39:53.885Z,21.53
2018-06-01T05:42:21.369Z,21.43
2018-06-01T05:44:49.621Z,21.20
2018-06-01T05:47:17.164Z,21.07
2018-06-01T05:49:45.150Z,22.00
2018-06-01T05:52:13.437Z,21.17
2018-06-01T05:54:40.922Z,20.73
2018-06-01T05:57:09.182Z,21.30
2018-06-01T05:59:36.668Z,20.23
2018-06-01T06:02:04.154Z,22.50
2018-06-01T06:04:31.753Z,20.20
2018-06-01T06:06:59.197Z,20.80
2018-06-01T06:09:26.688Z,19.90
2018-06-01T06:11:54.949Z,19.33
2018-06-01T06:14:22.449Z,20.37
2018-06-01T06:16:50.061Z,19.23
2018-06-01T06:19:17.555Z,19.53
2018-06-01T06:21:45.121Z,19.33
2018-06-01T06:24:12.623Z,18.93
2018-06-01T06:26:41.052Z,18.90
2018-06-01T06:29:08.538Z,18.53
2018-06-01T06:31:36.120Z,18.23
2018-06-01T06:34:04.543Z,20.77
2018-06-01T06:36:32.045Z,19.00
2018-06-01T06:38:59.543Z,18.53
2018-06-01T06:41:27.144Z,17.93
2018-06-01T06:43:54.699Z,18.03
2018-06-01T06:46:22.193Z,19.20
2018-06-01T06:48:49.815Z,18.47
2018-06-01T06:51:17.309Z,23.30
2018-06-01T06:53:44.809Z,18.93
2018-06-01T06:56:13.089Z,18.50
2018-06-01T06:58:41.349Z,17.93
2018-06-01T07:01:08.851Z,17.73
2018-06-01T07:03:36.358Z,18.23
2018-06-01T07:06:03.853Z,17.13
2018-06-01T07:08:31.368Z,18.20
2018-06-01T07:10:58.888Z,17.80
2018-06-01T07:13:26.422Z,17.43
2018-06-01T07:15:54.691Z,19.03
2018-06-01T07:18:22.975Z,18.23
2018-06-01T07:20:50.490Z,18.60
2018-06-01T07:23:18.014Z,18.40
2018-06-01T07:25:45.528Z,17.80
2018-06-01T07:28:13.041Z,24.33
2018-06-01T07:30:41.361Z,23.23
2018-06-01T07:33:08.867Z,20.73
2018-06-01T07:35:36.377Z,17.47
2018-06-01T07:38:03.876Z,16.97
2018-06-01T07:40:31.384Z,15.13
2018-06-01T07:42:58.894Z,16.27
2018-06-01T07:45:26.429Z,15.90
2018-06-01T07:47:54.681Z,15.20
2018-06-01T07:50:22.188Z,15.60
2018-06-01T07:52:49.696Z,28.37
2018-06-01T07:55:17.348Z,18.63
2018-06-01T07:57:44.857Z,16.50
2018-06-01T08:00:12.373Z,17.17
2018-06-01T08:02:39.872Z,15.47
2018-06-01T08:05:08.140Z,13.40
2018-06-01T08:07:36.432Z,14.53
2018-06-01T08:10:03.953Z,13.40
2018-06-01T08:12:31.454Z,12.87
2018-06-01T08:14:58.949Z,11.60
2018-06-01T08:17:26.467Z,10.87
2018-06-01T08:19:54.041Z,13.80
2018-06-01T08:22:21.564Z,10.33
2018-06-01T08:24:49.100Z,10.33
2018-06-01T08:27:16.607Z,11.70
2018-06-01T08:29:44.101Z,8.77
2018-06-01T08:32:11.632Z,9.97
2018-06-01T08:34:39.148Z,10.87
2018-06-01T08:37:06.713Z,9.37
2018-06-01T08:39:34.206Z,10.27
2018-06-01T08:42:01.721Z,9.63
2018-06-01T08:44:29.218Z,12.47
2018-06-01T08:46:56.704Z,9.37
2018-06-01T08:49:24.182Z,10.60
2018-06-01T08:51:51.788Z,10.40
2018-06-01T08:54:20.039Z,11.00
2018-06-01T08:56:47.528Z,12.00
2018-06-01T08:59:15.081Z,16.83
2018-06-01T09:01:42.528Z,11.30
2018-06-01T09:04:10.810Z,10.37
2018-06-01T09:06:39.070Z,11.13
2018-06-01T09:09:06.565Z,11.67
2018-06-01T09:11:34.063Z,13.00
2018-06-01T09:14:01.559Z,12.50
2018-06-01T09:16:29.827Z,13.13
2018-06-01T09:18:58.098Z,13.00
2018-06-01T09:21:25.593Z,13.13
2018-06-01T09:23:53.133Z,12.47
2018-06-01T09:26:21.404Z,12.70
2018-06-01T09:28:49.661Z,12.00
2018-06-01T09:31:17.159Z,13.30
2018-06-01T09:33:44.656Z,11.83
2018-06-01T09:36:12.149Z,12.97
2018-06-01T09:38:39.891Z,12.87
2018-06-01T09:41:07.393Z,11.80
2018-06-01T09:43:34.897Z,10.00
2018-06-01T09:46:02.409Z,9.47
2018-06-01T09:48:31.568Z,10.77
2018-06-01T09:50:59.073Z,9.50
2018-06-01T09:53:26.556Z,9.23
2018-06-01T09:55:54.060Z,7.83
2018-06-01T09:58:21.546Z,11.07
2018-06-01T10:00:54.669Z,9.27
2018-06-01T10:03:22.164Z,9.17
2018-06-01T10:05:49.662Z,9.23
2018-06-01T10:08:17.184Z,9.07
2018-06-01T10:10:45.437Z,9.48
2018-06-01T10:13:12.921Z,8.63
2018-06-01T10:15:41.222Z,7.65
2018-06-01T10:18:08.674Z,7.75
2018-06-01T10:20:36.212Z,7.30
2018-06-01T10:23:03.703Z,9.57
2018-06-01T10:25:31.198Z,8.90
2018-06-01T10:27:58.681Z,9.18
2018-06-01T10:30:26.252Z,9.30
2018-06-01T10:32:54.580Z,8.90
2018-06-01T10:35:22.080Z,9.82
2018-06-01T10:37:49.593Z,9.55
2018-06-01T10:40:17.084Z,8.80
2018-06-01T10:42:44.574Z,8.43
2018-06-01T10:45:12.848Z,8.23
2018-06-01T10:47:41.081Z,9.38
2018-06-01T10:50:08.585Z,8.07
2018-06-01T10:52:36.831Z,8.80
2018-06-01T10:55:04.807Z,8.05
2018-06-01T10:57:32.299Z,9.80
2018-06-01T10:59:59.793Z,7.75
2018-06-01T11:02:27.277Z,7.70
2018-06-01T11:04:54.806Z,8.23
2018-06-01T11:07:22.331Z,8.57
2018-06-01T11:09:49.813Z,8.07
2018-06-01T11:12:17.321Z,8.05
2018-06-01T11:14:44.805Z,8.23
2018-06-01T11:17:12.289Z,8.15
2018-06-01T11:19:39.792Z,8.75
2018-06-01T11:22:07.274Z,8.80
2018-06-01T11:24:34.777Z,8.25
2018-06-01T11:27:02.301Z,8.65
2018-06-01T11:29:29.860Z,8.70
2018-06-01T11:31:57.360Z,10.20
2018-06-01T11:34:24.848Z,9.15
2018-06-01T11:36:52.404Z,9.13
2018-06-01T11:39:19.886Z,8.35
2018-06-01T11:41:47.379Z,8.57
2018-06-01T11:44:14.940Z,8.45
2018-06-01T11:46:42.434Z,8.55
2018-06-01T11:49:09.926Z,8.85
2018-06-01T11:51:37.425Z,10.05
2018-06-01T11:54:05.659Z,8.27
2018-06-01T11:56:33.166Z,10.57
2018-06-01T11:59:00.709Z,11.18
2018-06-01T12:01:28.253Z,8.48
2018-06-01T12:03:55.737Z,8.18
2018-06-01T12:06:23.278Z,11.68
2018-06-01T12:08:50.772Z,8.60
2018-06-01T12:11:18.268Z,8.30
2018-06-01T12:13:46.528Z,8.80
2018-06-01T12:16:14.855Z,8.70
2018-06-01T12:18:42.349Z,9.30
2018-06-01T12:21:10.654Z,10.45
2018-06-01T12:23:38.925Z,8.95
2018-06-01T12:26:07.197Z,10.02
2018-06-01T12:28:35.471Z,9.63
2018-06-01T12:31:02.964Z,8.57
2018-06-01T12:33:30.517Z,9.10
2018-06-01T12:35:58.035Z,9.15
2018-06-01T12:38:25.619Z,8.88
2018-06-01T12:40:53.918Z,8.68
2018-06-01T12:43:21.404Z,8.95
2018-06-01T12:45:48.937Z,8.82
2018-06-01T12:48:16.461Z,9.13
2018-06-01T12:50:43.958Z,9.30
2018-06-01T12:53:11.456Z,9.68
2018-06-01T12:55:38.960Z,8.88
2018-06-01T12:58:06.464Z,11.93
2018-06-01T13:00:33.958Z,8.15
2018-06-01T13:03:02.245Z,10.38
2018-06-01T13:05:29.782Z,8.55
2018-06-01T13:07:57.265Z,8.40
2018-06-01T13:10:24.764Z,9.13
2018-06-01T13:12:52.261Z,8.55
2018-06-01T13:15:19.842Z,8.35
2018-06-01T13:17:47.299Z,8.70
2018-06-01T13:20:14.794Z,8.70
2018-06-01T13:22:42.302Z,8.75
2018-06-01T13:25:10.566Z,9.10
2018-06-01T13:27:38.057Z,8.27
2018-06-01T13:30:05.568Z,8.95
2018-06-01T13:32:33.042Z,8.82
2018-06-01T13:35:00.516Z,9.23
2018-06-01T13:37:28.049Z,8.52
2018-06-01T13:39:55.545Z,9.60
2018-06-01T13:42:23.044Z,8.93
2018-06-01T13:44:50.536Z,8.88
2018-06-01T13:47:18.027Z,10.50
2018-06-01T13:49:45.519Z,10.40
2018-06-01T13:52:13.018Z,9.70
2018-06-01T13:54:41.281Z,9.70
2018-06-01T13:57:08.773Z,10.43
2018-06-01T13:59:36.257Z,10.60
2018-06-01T14:02:03.782Z,11.30
2018-06-01T14:04:32.045Z,11.10
2018-06-01T14:06:59.587Z,10.53
2018-06-01T14:09:27.109Z,11.07
2018-06-01T14:11:55.324Z,11.37
2018-06-01T14:14:22.805Z,10.60
2018-06-01T14:16:51.073Z,10.97
2018-06-01T14:19:18.679Z,11.40
2018-06-01T14:21:46.132Z,11.37
2018-06-01T14:24:13.729Z,11.57
2018-06-01T14:26:41.257Z,11.73
2018-06-01T14:29:08.766Z,11.83
2018-06-01T14:31:36.284Z,12.60
2018-06-01T14:34:03.793Z,11.57
2018-06-01T14:36:32.060Z,11.77
2018-06-01T14:38:59.550Z,11.33
2018-06-01T14:41:27.065Z,11.43
2018-06-01T14:43:54.566Z,11.53
2018-06-01T14:46:22.065Z,10.73
2018-06-01T14:48:49.539Z,11.80
2018-06-01T14:51:17.033Z,11.60
2018-06-01T14:53:44.534Z,14.70
2018-06-01T14:56:12.049Z,21.53
2018-06-01T14:58:39.549Z,24.77
2018-06-01T15:01:07.897Z,17.53
2018-06-01T15:03:35.393Z,18.37
2018-06-01T15:06:02.879Z,16.67
2018-06-01T15:08:30.373Z,15.87
2018-06-01T15:10:57.907Z,15.80
2018-06-01T15:13:26.204Z,15.60
2018-06-01T15:15:53.708Z,15.37
2018-06-01T15:18:21.201Z,15.50
2018-06-01T15:20:49.460Z,15.97
2018-06-01T15:23:17.757Z,16.23
2018-06-01T15:25:46.061Z,16.83
2018-06-01T15:28:14.286Z,16.63
2018-06-01T15:30:41.777Z,16.67
2018-06-01T15:33:10.030Z,17.77
2018-06-01T15:35:37.530Z,16.87
2018-06-01T15:38:05.019Z,16.70
2018-06-01T15:40:32.552Z,15.53
2018-06-01T15:43:00.045Z,17.23
2018-06-01T15:45:27.560Z,17.20
2018-06-01T15:47:55.103Z,16.40
2018-06-01T15:50:23.436Z,16.83
2018-06-01T15:52:50.922Z,28.53
2018-06-01T15:55:18.433Z,17.47
2018-06-01T15:57:45.921Z,16.57
2018-06-01T16:00:13.418Z,16.93
2018-06-01T16:02:40.938Z,16.53
2018-06-01T16:05:08.485Z,17.97
2018-06-01T16:07:35.970Z,17.63
2018-06-01T16:10:03.459Z,20.50
2018-06-01T16:12:30.997Z,17.40
2018-06-01T16:14:58.475Z,16.43
2018-06-01T16:17:25.970Z,16.47
2018-06-01T16:19:53.464Z,16.33
2018-06-01T16:22:20.961Z,16.57
2018-06-01T16:24:48.456Z,15.63
2018-06-01T16:27:15.963Z,20.80
2018-06-01T16:29:44.222Z,16.23
2018-06-01T16:32:11.743Z,14.33
2018-06-01T16:34:39.295Z,14.93
2018-06-01T16:37:06.793Z,15.60
2018-06-01T16:39:34.297Z,15.30
2018-06-01T16:42:01.798Z,15.67
2018-06-01T16:44:29.296Z,16.10
2018-06-01T16:46:57.607Z,15.63
2018-06-01T16:49:25.092Z,15.73
2018-06-01T16:51:52.625Z,15.67
2018-06-01T16:54:20.128Z,15.67
2018-06-01T16:56:48.424Z,18.53
2018-06-01T16:59:16.681Z,18.50
2018-06-01T17:01:44.182Z,18.50
2018-06-01T17:04:11.676Z,19.87
2018-06-01T17:06:39.169Z,17.97
2018-06-01T17:09:06.693Z,18.97
2018-06-01T17:11:34.197Z,19.07
2018-06-01T17:14:02.465Z,18.43
2018-06-01T17:16:30.727Z,17.93
2018-06-01T17:18:58.233Z,19.93
2018-06-01T17:21:25.758Z,18.47
2018-06-01T17:23:54.032Z,18.50
2018-06-01T17:26:21.526Z,20.07
2018-06-01T17:28:49.063Z,19.67
2018-06-01T17:31:16.553Z,22.50
2018-06-01T17:33:44.053Z,18.47
2018-06-01T17:36:11.556Z,19.17
2018-06-01T17:38:39.039Z,19.13
2018-06-01T17:41:06.534Z,20.53
2018-06-01T17:43:34.792Z,22.43
2018-06-01T17:46:02.285Z,23.30
2018-06-01T17:48:30.541Z,24.07
2018-06-01T17:50:58.044Z,25.27
2018-06-01T17:53:25.528Z,26.27
2018-06-01T17:55:53.022Z,26.20
2018-06-01T17:58:21.265Z,27.80
2018-06-01T18:00:48.765Z,28.37
2018-06-01T18:03:17.025Z,32.27
2018-06-01T18:05:45.286Z,29.87
2018-06-01T18:08:12.781Z,28.90
2018-06-01T18:13:30.836Z,28.57
2018-06-01T18:15:58.332Z,29.33
2018-06-01T18:18:25.859Z,29.83
2018-06-01T18:20:53.367Z,29.93
2018-06-01T18:23:20.865Z,29.63
2018-06-01T18:25:49.148Z,30.90
2018-06-01T18:28:17.415Z,30.57
2018-06-01T18:30:45.682Z,32.67
2018-06-01T18:33:13.182Z,31.40
2018-06-01T18:35:40.673Z,30.23
2018-06-01T18:38:08.179Z,30.67
2018-06-01T18:40:36.434Z,31.30
2018-06-01T18:43:03.925Z,28.90
2018-06-01T18:45:31.427Z,29.90
2018-06-01T18:47:58.939Z,28.47
2018-06-01T18:50:26.454Z,29.77
2018-06-01T18:52:53.961Z,29.27
2018-06-01T18:55:21.487Z,29.33
2018-06-01T18:57:49.773Z,27.53
2018-06-01T19:00:18.050Z,27.10
2018-06-01T19:02:46.344Z,29.03
2018-06-01T19:05:13.957Z,29.60
2018-06-01T19:07:42.227Z,29.60
2018-06-01T19:10:10.556Z,31.93
2018-06-01T19:12:38.162Z,31.20
2018-06-01T19:15:05.669Z,31.97
2018-06-01T19:17:34.000Z,31.23
2018-06-01T19:20:01.466Z,35.77
2018-06-01T19:22:28.980Z,31.83
2018-06-01T19:24:56.479Z,32.50
2018-06-01T19:27:23.997Z,31.27
2018-06-01T19:29:51.510Z,31.77
2018-06-01T19:32:19.015Z,32.03
2018-06-01T19:34:46.517Z,32.47
2018-06-01T19:37:14.083Z,31.20
2018-06-01T19:39:41.733Z,30.47
2018-06-01T19:42:09.226Z,30.10
2018-06-01T19:44:37.535Z,31.83
2018-06-01T19:47:05.800Z,32.20
2018-06-01T19:49:33.293Z,32.73
2018-06-01T19:52:00.874Z,31.77
2018-06-01T19:54:28.373Z,32.27
2018-06-01T19:56:58.766Z,32.47
2018-06-01T19:59:26.324Z,32.23
2018-06-01T20:01:53.831Z,34.13
2018-06-01T20:04:21.354Z,32.93
2018-06-01T20:06:48.853Z,33.73
2018-06-01T20:09:16.353Z,34.47
2018-06-01T20:11:43.867Z,33.70
2018-06-01T20:14:11.412Z,32.47
2018-06-01T20:16:38.925Z,31.73
2018-06-01T20:19:06.423Z,33.20
2018-06-01T20:21:33.991Z,35.10
2018-06-01T20:24:01.544Z,34.60
2018-06-01T20:26:29.837Z,34.83
2018-06-01T20:28:57.357Z,35.57
2018-06-01T20:31:24.917Z,35.07
2018-06-01T20:33:52.462Z,37.00
2018-06-01T20:36:21.236Z,36.83
2018-06-01T20:38:48.737Z,37.70
2018-06-01T20:41:19.959Z,39.07
2018-06-01T20:43:48.297Z,44.23
2018-06-01T20:46:15.791Z,39.93
2018-06-01T20:48:43.313Z,39.60
2018-06-01T20:51:10.807Z,38.23
2018-06-01T20:53:38.320Z,39.77
2018-06-01T20:56:05.822Z,36.73
2018-06-01T20:58:33.346Z,37.10
2018-06-01T21:01:00.919Z,37.83
2018-06-01T21:03:28.422Z,35.17
2018-06-01T21:05:55.961Z,33.10
2018-06-01T21:08:23.525Z,34.63
2018-06-01T21:10:51.047Z,32.67
2018-06-01T21:13:18.555Z,34.17
2018-06-01T21:15:46.054Z,32.97
2018-06-01T21:18:13.648Z,30.83
2018-06-01T21:20:41.234Z,31.03
2018-06-01T21:23:08.726Z,28.43
2018-06-01T21:25:36.231Z,27.73
2018-06-01T21:28:03.737Z,26.90
2018-06-01T21:30:32.023Z,26.57
2018-06-01T21:32:59.527Z,25.03
2018-06-01T21:35:27.059Z,23.77
2018-06-01T21:37:54.570Z,24.03
2018-06-01T21:40:22.827Z,24.50
2018-06-01T21:42:50.358Z,22.87
2018-06-01T21:45:17.886Z,23.93
2018-06-01T21:47:45.474Z,26.37
2018-06-01T21:50:12.981Z,23.63
2018-06-01T21:52:40.491Z,22.30
2018-06-01T21:55:08.698Z,22.97
2018-06-01T21:57:36.242Z,22.00
2018-06-01T22:00:03.732Z,21.83
2018-06-01T22:02:32.019Z,21.37
2018-06-01T22:05:00.279Z,20.50
2018-06-01T22:07:27.798Z,20.07
2018-06-01T22:09:55.301Z,20.07
2018-06-01T22:12:22.781Z,19.37
2018-06-01T22:14:51.055Z,19.23
2018-06-01T22:17:19.326Z,18.73
2018-06-01T22:19:47.606Z,18.37
2018-06-01T22:22:15.903Z,18.87
2018-06-01T22:24:43.420Z,17.83
2018-06-01T22:27:10.926Z,18.90
2018-06-01T22:29:38.414Z,19.17
2018-06-01T22:32:06.001Z,19.10
2018-06-01T22:34:33.513Z,17.70
2018-06-01T22:37:01.055Z,18.80
2018-06-01T22:39:28.603Z,18.87
2018-06-01T22:41:56.928Z,18.80
2018-06-01T22:44:25.417Z,18.20
2018-06-01T22:46:52.925Z,18.20
2018-06-01T22:49:20.465Z,17.67
2018-06-01T22:51:48.740Z,17.83
2018-06-01T22:54:17.038Z,18.00
2018-06-01T22:56:44.562Z,18.20
2018-06-01T22:59:12.058Z,18.27
2018-06-01T23:01:39.571Z,17.90
2018-06-01T23:04:07.091Z,18.93
2018-06-01T23:06:34.611Z,17.83
2018-06-01T23:09:02.890Z,17.90
2018-06-01T23:11:31.145Z,19.43
2018-06-01T23:13:58.629Z,19.63
2018-06-01T23:16:26.877Z,19.47
2018-06-01T23:18:54.367Z,20.33
2018-06-01T23:21:21.944Z,20.13
2018-06-01T23:23:49.486Z,18.10
2018-06-01T23:26:17.757Z,19.23
2018-06-01T23:28:46.085Z,18.77
2018-06-01T23:31:13.632Z,18.07
2018-06-01T23:33:41.147Z,18.87
2018-06-01T23:36:08.637Z,17.87
2018-06-01T23:38:36.123Z,19.00
2018-06-01T23:41:03.663Z,19.10
2018-06-01T23:43:31.166Z,18.70
2018-06-01T23:45:58.692Z,19.50
2018-06-01T23:48:26.189Z,19.27
2018-06-01T23:50:53.712Z,18.10
2018-06-01T23:53:21.228Z,18.20
2018-06-01T23:55:48.836Z,18.40
2018-06-01T23:58:16.332Z,19.27
